.
WxDataArchive / Data Records for 2011-05-25
2011-05-24 May 2011 2011-05-26

Data Records for Wednesday, 25 May 2011

Time	Temp	Chill	HIndex	Humid	Dewpt	 Wind 	HiWind	WindDir	Rain 	Barom 
-----	----	-----	------	-----	-----	------	------	-------	-----	----- 
00:00	62.7	62.7	62.7	95	61.2	0	0	---	0.00	29.863 
00:05	62.6	62.6	62.6	95	61.1	0	0	---	0.00	29.863 
00:10	62.6	62.6	62.6	95	61.1	0	0	---	0.00	29.863 
00:15	62.4	62.4	62.4	96	61.2	0	0	---	0.00	29.863 
00:20	62.4	62.4	62.4	96	61.2	0	0	---	0.00	29.863 
00:25	62.3	62.3	62.3	96	61.1	0	0	---	0.00	29.863 
00:30	62.3	62.3	62.3	96	61.1	0	0	---	0.00	29.863 
00:35	62.3	62.3	62.3	96	61.1	0	0	---	0.00	29.863 
00:40	62.1	62.1	62.1	96	60.9	0	0	---	0.00	29.863 
00:45	62.0	62.0	62.0	96	60.8	0	0	---	0.00	29.860 
00:50	62.0	62.0	62.0	96	60.8	0	0	---	0.00	29.860 
00:55	61.8	61.8	61.8	96	60.6	0	0	---	0.00	29.860 
01:00	61.8	61.8	61.8	96	60.6	0	0	---	0.00	29.849 
01:05	61.8	61.8	61.8	96	60.6	0	0	---	0.00	29.849 
01:10	61.8	61.8	61.8	96	60.6	0	1	68	0.00	29.849 
01:15	62.4	62.4	62.4	96	61.2	1	3	68	0.00	29.850 
01:20	62.9	62.9	62.9	96	61.7	1	3	68	0.00	29.850 
01:25	62.9	62.9	62.9	96	61.7	1	3	68	0.00	29.850 
01:30	62.7	62.7	62.7	96	61.5	0	2	68	0.00	29.856 
01:35	62.6	62.6	62.6	96	61.4	0	0	---	0.00	29.856 
01:40	62.6	62.6	62.6	96	61.4	0	1	68	0.00	29.856 
01:45	62.4	62.4	62.4	96	61.2	0	1	68	0.00	29.861 
01:50	62.4	62.4	62.4	96	61.2	0	1	68	0.00	29.861 
01:55	62.4	62.4	62.4	96	61.2	0	1	68	0.00	29.861 
02:00	62.4	62.4	62.4	96	61.2	1	3	68	0.00	29.859 
02:05	62.4	62.4	62.4	96	61.2	2	5	68	0.00	29.859 
02:10	62.6	62.6	62.6	96	61.4	2	5	90	0.00	29.859 
02:15	62.6	62.6	62.6	96	61.4	2	9	90	0.00	29.846 
02:20	62.7	62.7	62.7	96	61.5	2	4	68	0.00	29.846 
02:25	62.7	62.7	62.7	96	61.5	2	5	90	0.00	29.846 
02:30	62.7	62.7	62.7	96	61.5	2	6	90	0.00	29.845 
02:35	62.7	62.7	62.7	96	61.5	3	6	90	0.00	29.845 
02:40	62.6	62.6	62.6	96	61.4	3	6	90	0.00	29.845 
02:45	62.4	62.4	62.4	96	61.2	1	4	112	0.00	29.847 
02:50	62.0	62.0	62.0	96	60.8	2	5	90	0.00	29.847 
02:55	61.6	61.6	61.6	95	60.2	3	7	90	0.00	29.847 
03:00	61.5	61.5	61.5	95	60.1	2	5	90	0.00	29.848 
03:05	61.2	61.2	61.2	95	59.8	3	5	68	0.00	29.848 
03:10	60.9	60.9	60.9	95	59.5	3	7	68	0.00	29.848 
03:15	60.5	60.5	60.5	95	59.1	4	7	90	0.00	29.824 
03:20	60.4	60.4	60.4	95	59.0	3	9	90	0.00	29.824 
03:25	60.4	60.4	60.4	95	59.0	2	7	90	0.00	29.824 
03:30	60.2	60.2	60.2	95	58.8	2	6	90	0.00	29.829 
03:35	60.2	60.2	60.2	95	58.8	3	6	90	0.00	29.829 
03:40	60.1	60.1	60.1	95	58.7	3	7	90	0.00	29.829 
03:45	60.1	60.1	60.1	95	58.7	2	5	68	0.00	29.830 
03:50	59.9	59.9	59.9	95	58.5	3	6	90	0.00	29.830 
03:55	59.9	59.9	59.9	95	58.5	2	4	90	0.00	29.830 
04:00	59.9	59.9	59.9	95	58.5	2	6	90	0.00	29.838 
04:05	59.8	59.8	59.8	95	58.4	2	6	90	0.00	29.838 
04:10	59.8	59.8	59.8	95	58.4	1	3	90	0.00	29.838 
04:15	59.6	59.6	59.6	95	58.2	1	3	90	0.00	29.845 
04:20	59.3	59.3	59.3	95	57.9	3	5	90	0.00	29.845 
04:25	59.2	59.2	59.2	94	57.5	1	3	90	0.00	29.845 
04:30	58.9	58.9	58.9	94	57.2	3	6	90	0.00	29.838 
04:35	58.7	58.7	58.7	94	57.0	2	7	90	0.00	29.838 
04:40	58.7	58.7	58.7	94	57.0	2	5	90	0.00	29.838 
04:45	58.6	58.6	58.6	94	56.9	2	4	90	0.00	29.845 
04:50	58.4	58.4	58.4	93	56.4	3	7	68	0.00	29.845 
04:55	58.4	58.4	58.4	93	56.4	2	6	90	0.00	29.845 
05:00	58.3	58.3	58.3	93	56.3	3	7	90	0.00	29.843 
05:05	58.3	58.3	58.3	93	56.3	3	6	90	0.00	29.843 
05:10	58.3	58.3	58.3	93	56.3	2	4	68	0.00	29.843 
05:15	58.3	58.3	58.3	93	56.3	2	3	68	0.00	29.842 
05:20	58.3	58.3	58.3	93	56.3	2	4	90	0.00	29.842 
05:25	58.4	58.4	58.4	93	56.4	2	5	90	0.00	29.842 
05:30	58.4	58.4	58.4	93	56.4	1	5	90	0.00	29.839 
05:35	58.4	58.4	58.4	93	56.4	1	3	90	0.00	29.839 
05:40	58.4	58.4	58.4	93	56.4	1	4	90	0.00	29.839 
05:45	58.4	58.4	58.4	93	56.4	1	3	90	0.00	29.841 
05:50	58.3	58.3	58.3	93	56.3	2	5	90	0.00	29.841 
05:55	58.3	58.3	58.3	93	56.3	1	4	90	0.00	29.841 
06:00	58.1	58.1	58.1	93	56.1	2	4	90	0.00	29.840 
06:05	58.1	58.1	58.1	93	56.1	1	3	90	0.00	29.840 
06:10	58.1	58.1	58.1	93	56.1	1	3	90	0.00	29.840 
06:15	58.1	58.1	58.1	93	56.1	1	4	90	0.00	29.840 
06:20	58.1	58.1	58.1	93	56.1	2	4	90	0.00	29.840 
06:25	58.1	58.1	58.1	93	56.1	2	4	68	0.00	29.840 
06:30	58.1	58.1	58.1	93	56.1	1	4	90	0.00	29.832 
06:35	58.3	58.3	58.3	93	56.3	1	4	90	0.00	29.832 
06:40	58.3	58.3	58.3	93	56.3	1	4	90	0.00	29.832 
06:45	58.1	58.1	58.1	93	56.1	2	5	90	0.00	29.829 
06:50	58.1	58.1	58.1	93	56.1	1	5	90	0.00	29.829 
06:55	58.1	58.1	58.1	93	56.1	1	5	68	0.00	29.829 
07:00	58.1	58.1	58.1	93	56.1	1	5	68	0.00	29.826 
07:05	58.1	58.1	58.1	93	56.1	2	4	90	0.00	29.826 
07:10	58.1	58.1	58.1	93	56.1	1	4	90	0.00	29.826 
07:15	58.3	58.3	58.3	93	56.3	1	4	90	0.00	29.829 
07:20	58.3	58.3	58.3	93	56.3	0	1	90	0.00	29.829 
07:25	58.3	58.3	58.3	93	56.3	1	4	90	0.00	29.829 
07:30	58.3	58.3	58.3	93	56.3	1	5	90	0.00	29.836 
07:35	58.4	58.4	58.4	93	56.4	2	5	68	0.00	29.836 
07:40	58.4	58.4	58.4	93	56.4	1	4	68	0.00	29.836 
07:45	58.4	58.4	58.4	93	56.4	2	5	68	0.00	29.833 
07:50	58.4	58.4	58.4	93	56.4	2	5	68	0.00	29.833 
07:55	58.6	58.6	58.6	93	56.6	2	4	68	0.00	29.833 
08:00	58.6	58.6	58.6	93	56.6	2	5	68	0.00	29.828 
08:05	58.6	58.6	58.6	93	56.6	2	4	68	0.00	29.828 
08:10	58.7	58.7	58.7	93	56.7	2	4	90	0.00	29.828 
08:15	58.9	58.9	58.9	93	56.9	2	5	90	0.00	29.824 
08:20	58.9	58.9	58.9	93	56.9	2	5	90	0.00	29.824 
08:25	59.2	59.2	59.2	93	57.2	2	5	112	0.00	29.824 
08:30	59.3	59.3	59.3	92	57.0	3	6	112	0.00	29.821 
08:35	59.5	59.5	59.5	92	57.2	2	9	90	0.00	29.821 
08:40	59.6	59.6	59.6	92	57.3	2	6	112	0.00	29.821 
08:45	59.6	59.6	59.6	92	57.3	3	7	68	0.00	29.820 
08:50	59.9	59.9	59.9	92	57.6	1	4	112	0.00	29.820 
08:55	60.1	60.1	60.1	92	57.8	2	5	112	0.00	29.820 
09:00	60.2	60.2	60.2	91	57.6	3	5	90	0.00	29.810 
09:05	60.5	60.5	60.5	91	57.9	3	7	90	0.00	29.810 
09:10	60.9	60.9	60.9	91	58.3	2	4	68	0.00	29.810 
09:15	61.2	61.2	61.2	91	58.5	2	4	90	0.00	29.809 
09:20	61.3	61.3	61.3	90	58.3	2	5	90	0.00	29.809 
09:25	61.5	61.5	61.5	90	58.5	2	4	68	0.00	29.809 
09:30	61.8	61.8	61.8	90	58.8	2	4	68	0.00	29.804 
09:35	62.1	62.1	62.1	91	59.4	3	6	112	0.00	29.804 
09:40	62.3	62.3	62.3	90	59.3	2	4	68	0.00	29.804 
09:45	62.4	62.4	62.4	90	59.4	3	8	112	0.00	29.789 
09:50	62.6	62.6	62.6	90	59.6	3	6	90	0.00	29.789 
09:55	62.7	62.7	62.7	89	59.4	4	7	90	0.00	29.789 
10:00	63.2	63.2	63.2	90	60.2	3	9	90	0.00	29.768 
10:05	63.9	63.9	63.9	88	60.3	3	6	90	0.00	29.768 
10:10	64.7	64.7	64.7	88	61.1	3	6	90	0.00	29.768 
10:15	65.5	65.5	65.5	87	61.5	2	5	68	0.00	29.769 
10:20	66.1	66.1	66.1	87	62.1	2	6	90	0.00	29.769 
10:25	66.8	66.8	66.8	85	62.1	2	4	90	0.00	29.769 
10:30	66.8	66.8	66.8	85	62.1	2	6	90	0.00	29.758 
10:35	66.8	66.8	66.8	85	62.1	4	7	68	0.00	29.758 
10:40	66.6	66.6	66.6	85	61.9	3	9	90	0.00	29.758 
10:45	66.4	66.4	66.4	86	62.1	4	11	90	0.00	29.755 
10:50	66.6	66.6	66.6	87	62.6	2	5	90	0.00	29.755 
10:55	66.9	66.9	66.9	87	62.9	2	4	112	0.00	29.755 
11:00	67.1	67.1	67.1	86	62.8	3	7	112	0.00	29.740 
11:05	67.1	67.1	67.1	87	63.1	4	9	90	0.00	29.740 
11:10	66.9	66.9	66.9	87	62.9	3	7	68	0.00	29.740 
11:15	66.9	66.9	66.9	88	63.2	2	5	68	0.01	29.758 
11:20	66.9	66.9	66.9	89	63.5	1	5	112	0.02	29.758 
11:25	66.8	66.8	66.8	91	64.1	2	7	135	0.28	29.758 
11:30	66.3	66.3	66.3	92	63.9	3	6	112	0.07	29.742 
11:35	66.1	66.1	66.1	93	64.0	2	6	112	0.03	29.742 
11:40	66.0	66.0	66.0	93	63.9	2	6	90	0.00	29.742 
11:45	66.0	66.0	66.0	94	64.2	3	8	90	0.01	29.727 
11:50	65.8	65.8	65.8	95	64.3	3	7	90	0.00	29.727 
11:55	65.8	65.8	65.8	95	64.3	3	6	90	0.00	29.727 
12:00	66.0	66.0	66.0	95	64.5	4	9	90	0.00	29.726 
12:05	66.3	66.3	66.3	95	64.8	4	9	90	0.00	29.726 
12:10	66.9	66.9	66.9	96	65.7	3	8	90	0.00	29.726 
12:15	67.9	67.9	67.9	96	66.7	4	10	90	0.00	29.704 
12:20	67.6	67.6	67.6	95	66.1	5	10	90	0.00	29.704 
12:25	67.4	67.4	67.4	95	65.9	4	11	68	0.00	29.704 
12:30	67.4	67.4	67.4	95	65.9	4	9	90	0.00	29.697 
12:35	67.8	67.8	67.8	95	66.3	4	10	90	0.00	29.697 
12:40	68.1	68.1	68.1	95	66.6	3	9	90	0.00	29.697 
12:45	68.9	68.9	68.9	95	67.4	3	6	90	0.00	29.692 
12:50	69.1	69.1	69.1	94	67.3	3	7	90	0.00	29.692 
12:55	68.9	68.9	68.9	93	66.8	3	6	90	0.02	29.692 
13:00	69.4	69.4	69.4	94	67.6	3	8	90	0.00	29.691 
13:05	69.9	69.9	69.9	94	68.1	3	7	90	0.00	29.691 
13:10	69.9	69.9	69.9	94	68.1	3	10	90	0.00	29.691 
13:15	69.9	69.9	69.9	93	67.8	3	6	90	0.00	29.676 
13:20	69.8	69.8	69.8	93	67.7	4	9	90	0.00	29.676 
13:25	69.8	69.8	69.8	93	67.7	3	9	90	0.00	29.676 
13:30	69.6	69.6	69.6	92	67.2	4	10	90	0.00	29.666 
13:35	69.6	69.6	69.6	92	67.2	1	8	112	0.00	29.666 
13:40	68.4	68.4	68.4	89	65.0	2	9	315	0.00	29.666 
13:45	66.3	66.3	66.3	88	62.6	2	6	0	0.10	29.675 
13:50	64.7	64.7	64.7	89	61.4	1	3	0	0.12	29.675 
13:55	63.7	63.7	63.7	91	61.0	2	6	0	0.04	29.675 
14:00	63.4	63.4	63.4	92	61.0	1	5	135	0.00	29.696 
14:05	63.2	63.2	63.2	93	61.1	0	3	112	0.05	29.696 
14:10	63.2	63.2	63.2	93	61.1	0	2	112	0.01	29.696 
14:15	63.4	63.4	63.4	94	61.6	1	4	112	0.02	29.673 
14:20	63.5	63.5	63.5	94	61.7	1	2	112	0.19	29.673 
14:25	63.7	63.7	63.7	94	61.9	1	5	90	0.14	29.673 
14:30	64.0	64.0	64.0	95	62.5	1	4	315	0.04	29.666 
14:35	64.2	64.2	64.2	95	62.7	0	1	315	0.02	29.666 
14:40	64.0	64.0	64.0	95	62.5	0	2	315	0.01	29.666 
14:45	63.9	63.9	63.9	95	62.4	0	1	315	0.05	29.686 
14:50	63.9	63.9	63.9	95	62.4	0	3	315	0.04	29.686 
14:55	63.5	63.5	63.5	95	62.0	0	1	315	0.01	29.686 
15:00	63.4	63.4	63.4	95	61.9	0	0	---	0.01	29.666 
15:05	63.5	63.5	63.5	95	62.0	0	0	---	0.02	29.666 
15:10	63.7	63.7	63.7	95	62.2	0	2	315	0.00	29.666 
15:15	64.0	64.0	64.0	95	62.5	1	3	315	0.01	29.653 
15:20	64.2	64.2	64.2	96	63.0	0	0	---	0.00	29.653 
15:25	64.2	64.2	64.2	96	63.0	0	1	315	0.00	29.653 
15:30	64.2	64.2	64.2	96	63.0	0	1	315	0.01	29.636 
15:35	64.3	64.3	64.3	96	63.1	0	0	---	0.00	29.636 
15:40	64.3	64.3	64.3	96	63.1	0	0	---	0.02	29.636 
15:45	64.3	64.3	64.3	96	63.1	0	1	315	0.08	29.650 
15:50	64.3	64.3	64.3	96	63.1	1	2	315	0.13	29.650 
15:55	64.3	64.3	64.3	96	63.1	1	2	315	0.06	29.650 
16:00	64.3	64.3	64.3	96	63.1	2	5	315	0.02	29.684 
16:05	63.7	63.7	63.7	95	62.2	5	12	315	0.04	29.684 
16:10	62.0	62.0	62.0	95	60.5	4	11	315	0.02	29.684 
16:15	61.5	61.5	61.5	95	60.1	1	4	338	0.01	29.701 
16:20	61.3	61.3	61.3	95	59.9	1	4	292	0.07	29.701 
16:25	61.3	61.3	61.3	96	60.1	0	1	292	0.05	29.701 
16:30	61.3	61.3	61.3	96	60.1	0	1	292	0.02	29.701 
16:35	61.5	61.5	61.5	96	60.3	0	1	292	0.01	29.701 
16:40	61.6	61.6	61.6	96	60.4	0	1	292	0.00	29.701 
16:45	61.8	61.8	61.8	96	60.6	0	2	292	0.00	29.684 
16:50	62.1	62.1	62.1	96	60.9	0	2	292	0.00	29.684 
16:55	62.3	62.3	62.3	96	61.1	0	3	292	0.00	29.684 
17:00	62.3	62.3	62.3	96	61.1	0	0	---	0.00	29.682 
17:05	62.3	62.3	62.3	96	61.1	0	0	---	0.00	29.682 
17:10	62.1	62.1	62.1	96	60.9	0	2	0	0.00	29.682 
17:15	62.1	62.1	62.1	96	60.9	1	3	0	0.04	29.687 
17:20	62.1	62.1	62.1	96	60.9	0	2	0	0.02	29.687 
17:25	62.3	62.3	62.3	96	61.1	0	1	0	0.00	29.687 
17:30	62.3	62.3	62.3	96	61.1	1	2	0	0.00	29.675 
17:35	62.1	62.1	62.1	96	60.9	0	2	0	0.01	29.675 
17:40	62.1	62.1	62.1	96	60.9	0	1	0	0.03	29.675 
17:45	62.1	62.1	62.1	96	60.9	0	1	0	0.04	29.688 
17:50	62.1	62.1	62.1	96	60.9	0	1	0	0.03	29.688 
17:55	62.1	62.1	62.1	96	60.9	0	0	---	0.01	29.688 
18:00	62.3	62.3	62.3	96	61.1	0	0	---	0.00	29.671 
18:05	62.3	62.3	62.3	96	61.1	0	0	---	0.01	29.671 
18:10	62.3	62.3	62.3	96	61.1	0	0	---	0.00	29.671 
18:15	62.4	62.4	62.4	96	61.2	0	1	0	0.00	29.718 
18:20	62.3	62.3	62.3	96	61.1	0	0	---	0.01	29.718 
18:25	62.3	62.3	62.3	96	61.1	0	1	0	0.00	29.718 
18:30	62.3	62.3	62.3	96	61.1	0	2	0	0.00	29.660 
18:35	62.1	62.1	62.1	96	60.9	0	2	0	0.00	29.660 
18:40	62.1	62.1	62.1	96	60.9	0	2	0	0.00	29.660 
18:45	62.1	62.1	62.1	96	60.9	1	2	0	0.00	29.678 
18:50	62.1	62.1	62.1	96	60.9	0	1	0	0.00	29.678 
18:55	62.1	62.1	62.1	96	60.9	0	2	0	0.00	29.678 
19:00	62.1	62.1	62.1	96	60.9	0	1	0	0.00	29.672 
19:05	62.1	62.1	62.1	96	60.9	0	2	0	0.00	29.672 
19:10	62.1	62.1	62.1	96	60.9	0	1	0	0.00	29.672 
19:15	62.0	62.0	62.0	96	60.8	0	2	0	0.00	29.630 
19:20	62.0	62.0	62.0	96	60.8	0	1	0	0.00	29.630 
19:25	62.0	62.0	62.0	96	60.8	0	1	0	0.00	29.630 
19:30	62.0	62.0	62.0	96	60.8	0	2	0	0.00	29.613 
19:35	62.0	62.0	62.0	96	60.8	0	1	0	0.00	29.613 
19:40	62.1	62.1	62.1	96	60.9	0	1	45	0.00	29.613 
19:45	62.1	62.1	62.1	96	60.9	0	2	45	0.00	29.607 
19:50	62.1	62.1	62.1	96	60.9	1	4	45	0.00	29.607 
19:55	62.0	62.0	62.0	96	60.8	2	3	45	0.00	29.607 
20:00	62.0	62.0	62.0	96	60.8	1	4	112	0.00	29.613 
20:05	62.0	62.0	62.0	96	60.8	1	3	90	0.00	29.613 
20:10	62.0	62.0	62.0	96	60.8	1	3	90	0.00	29.613 
20:15	61.8	61.8	61.8	96	60.6	2	4	112	0.00	29.621 
20:20	61.8	61.8	61.8	96	60.6	2	4	112	0.00	29.621 
20:25	61.8	61.8	61.8	95	60.3	2	4	90	0.00	29.621 
20:30	61.8	61.8	61.8	95	60.3	1	5	112	0.00	29.606 
20:35	61.8	61.8	61.8	95	60.3	1	3	112	0.00	29.606 
20:40	61.8	61.8	61.8	95	60.3	2	4	112	0.00	29.606 
20:45	61.8	61.8	61.8	95	60.3	1	4	112	0.00	29.606 
20:50	61.8	61.8	61.8	94	60.1	1	4	112	0.00	29.606 
20:55	61.8	61.8	61.8	94	60.1	2	5	158	0.00	29.606 
21:00	61.8	61.8	61.8	92	59.4	2	5	112	0.00	29.629 
21:05	62.1	62.1	62.1	92	59.7	2	7	112	0.00	29.629 
21:10	62.3	62.3	62.3	91	59.6	3	6	90	0.00	29.629 
21:15	62.4	62.4	62.4	91	59.7	1	2	90	0.00	29.632 
21:20	62.4	62.4	62.4	91	59.7	0	2	90	0.00	29.632 
21:25	62.4	62.4	62.4	91	59.7	0	2	90	0.00	29.632 
21:30	62.4	62.4	62.4	91	59.7	1	3	90	0.00	29.623 
21:35	62.4	62.4	62.4	91	59.7	1	3	90	0.00	29.623 
21:40	62.4	62.4	62.4	92	60.0	1	4	90	0.06	29.623 
21:45	62.3	62.3	62.3	92	59.9	3	7	90	0.01	29.590 
21:50	62.0	62.0	62.0	93	59.9	3	7	90	0.00	29.590 
21:55	61.8	61.8	61.8	93	59.8	2	5	90	0.00	29.590 
22:00	61.8	61.8	61.8	93	59.8	2	7	112	0.00	29.581 
22:05	61.6	61.6	61.6	93	59.6	1	5	45	0.01	29.581 
22:10	61.3	61.3	61.3	93	59.3	2	5	45	0.00	29.581 
22:15	61.2	61.2	61.2	93	59.2	2	4	45	0.00	29.596 
22:20	61.2	61.2	61.2	93	59.2	2	5	68	0.00	29.596 
22:25	61.2	61.2	61.2	93	59.2	1	4	112	0.00	29.596 
22:30	61.2	61.2	61.2	93	59.2	1	3	90	0.00	29.589 
22:35	61.3	61.3	61.3	93	59.3	1	3	90	0.00	29.589 
22:40	61.3	61.3	61.3	93	59.3	0	3	90	0.00	29.589 
22:45	61.5	61.5	61.5	92	59.2	0	2	90	0.00	29.587 
22:50	61.5	61.5	61.5	92	59.2	0	3	90	0.00	29.587 
22:55	61.5	61.5	61.5	92	59.2	0	2	90	0.00	29.587 
23:00	61.6	61.6	61.6	93	59.6	1	3	90	0.01	29.610 
23:05	61.6	61.6	61.6	93	59.6	1	6	90	0.04	29.610 
23:10	61.6	61.6	61.6	93	59.6	1	4	90	0.01	29.610 
23:15	61.6	61.6	61.6	93	59.6	2	4	90	0.00	29.586 
23:20	61.6	61.6	61.6	94	59.9	1	5	90	0.00	29.586 
23:25	61.8	61.8	61.8	94	60.1	1	3	90	0.00	29.586 
23:30	61.8	61.8	61.8	94	60.1	2	6	112	0.00	29.584 
23:35	61.8	61.8	61.8	94	60.1	2	4	112	0.00	29.584 
23:40	61.6	61.6	61.6	93	59.6	3	7	90	0.00	29.584 
23:45	61.6	61.6	61.6	93	59.6	3	7	90	0.00	29.570 
23:50	61.6	61.6	61.6	93	59.6	3	8	90	0.00	29.570 
23:55	61.5	61.5	61.5	93	59.5	4	12	90	0.00	29.570 

CoCoRaHS
IN-AL-39
A2 Web Hosting
Creative Commons License
GoDaddy
search engine by freefind advanced

loaded 2018-11-20 09:12:26 • last modified 2010-11-18 10:43:29
Privacy PolicyDisclaimer
• wx.awcolley.com is powered by PmWiki v.2002016 •
• all content (unless otherwise noted) © 2018 A W Colley